Latest Weather Observations for Victoria River Downs

IDD60801

Issued at 8:31 pm CST Friday 6 March 2015 (issued every 30 minutes, with the page automatically refreshed every 10 minutes)

About weather observations | Map of weather stations | Latest weather observations for NT | Other Formats
Station Details ID: 014825 Name: VICTORIA RIVER DOWNS Lat: -16.40 Lon: 131.01 Height: 88.5 m
Data from the previous 72 hours. | See also: Recent months at Victoria River Downs
Date/Time
CST
Temp
°C
App
Temp
°C
Dew
Point
Rel
Hum
%
Delta-T
°C
Wind Press
QNH
hPa
Press
MSL
hPa
Rain
since 9 am
mm
Dir
 
Spd
km/h
Gust
km/h
Spd
kts
Gust
kts
06/08:30pm 30.5 - 18.6 49 7.7 - - - - - 1006.1 - 0.0
06/08:00pm 31.6 - 18.2 44 8.7 - - - - - 1005.6 - 0.0
06/07:30pm 31.7 - 17.6 43 9.0 - - - - - 1005.1 - 0.0
06/07:00pm 33.4 - 16.3 36 10.9 - - - - - 1004.9 - 0.0
06/06:30pm 34.7 - 16.1 33 11.8 - - - - - 1004.4 - 0.0
06/06:00pm 35.5 - 15.8 31 12.5 - - - - - 1004.3 1003.6 0.0
06/05:30pm 36.1 - 15.8 30 12.9 - - - - - 1004.0 - 0.0
06/05:00pm 36.5 - 17.6 32 12.3 - - - - - 1003.9 - 0.0
06/04:30pm 36.7 - 16.3 30 13.0 - - - - - 1004.1 - 0.0
06/04:00pm 37.1 - 16.6 29 13.2 - - - - - 1004.3 - 0.0
06/03:30pm 37.2 - 18.2 32 12.5 - - - - - 1004.5 - 0.0
06/03:00pm 37.3 - 18.3 32 12.5 - - - - - 1004.8 1004.2 0.0
06/02:30pm 36.8 - 16.9 31 12.8 - - - - - 1005.3 - 0.0
06/02:00pm 36.9 - 18.9 34 11.9 - - - - - 1005.7 - 0.0
06/01:30pm 36.5 - 19.9 38 11.1 - - - - - 1006.2 - 0.0
06/01:00pm 35.2 - 21.5 45 9.3 - - - - - 1006.7 - 0.0
06/12:30pm 35.3 - 20.8 42 9.8 - - - - - 1006.9 - 0.0
06/12:00pm 34.9 - 20.8 43 9.5 - - - - - 1007.3 1006.7 0.0
06/11:30am 34.7 - 20.3 43 9.7 - - - - - 1007.3 - 0.0
06/11:00am 34.2 - 21.3 47 8.8 - - - - - 1007.9 - 0.0
06/10:30am 33.4 - 21.9 51 7.9 - - - - - 1008.0 - 0.0
06/10:00am 32.8 - 21.0 50 8.0 - - - - - 1008.2 - 0.0
06/09:30am 31.9 - 21.7 54 6.9 - - - - - 1008.1 - 0.0
06/09:00am 31.2 - 21.9 57 6.3 - - - - - 1008.1 1007.5 0.0
06/08:30am 30.4 - 23.1 65 5.0 - - - - - 1007.9 - 0.0
06/08:00am 29.1 - 22.8 69 4.3 - - - - - 1007.7 - 0.0
06/07:30am 27.4 - 23.2 78 2.9 - - - - - 1007.5 - 0.0
06/07:00am 26.3 - 23.4 84 2.0 - - - - - 1007.5 - 0.0
06/06:30am 26.6 - 23.3 82 2.3 - - - - - 1007.2 - 0.0
06/06:00am 26.6 - 23.5 83 2.1 - - - - - 1007.1 1006.5 0.0
06/05:30am 26.7 - 23.2 81 2.4 - - - - - 1006.7 - 0.0
06/05:00am 26.8 - 22.8 79 2.7 - - - - - 1006.9 - 0.0
06/04:30am 27.1 - 22.7 77 3.0 - - - - - 1007.0 - 0.0
06/04:00am 27.4 - 23.4 79 2.7 - - - - - 1006.9 - 0.0
06/03:30am 27.5 - 22.7 75 3.3 - - - - - 1006.9 - 0.0
06/03:00am 27.9 - 22.6 73 3.6 - - - - - 1007.1 1006.5 0.0
06/02:30am 28.0 - 22.7 73 3.6 - - - - - 1007.4 - 0.0
06/02:00am 28.2 - 22.9 73 3.6 - - - - - 1007.7 - 0.0
06/01:30am 28.3 - 22.5 71 3.9 - - - - - 1007.8 - 0.0
06/01:00am 28.7 - 22.7 70 4.1 - - - - - 1008.2 - 0.0
06/12:30am 28.8 - 23.2 71 3.8 - - - - - 1008.2 - 0.0
06/12:00am 28.5 - 22.5 70 4.1 - - - - - 1008.4 1007.8 0.0
 
Date/Time
CST
Temp
°C
App
Temp
°C
Dew
Point
Rel
Hum
%
Delta-T
°C
Wind Press
QNH
hPa
Press
MSL
hPa
Rain
since 9 am
mm
Dir
 
Spd
km/h
Gust
km/h
Spd
kts
Gust
kts
05/11:30pm 28.4 - 22.6 71 3.9 - - - - - 1008.4 - 0.0
05/11:00pm 28.3 - 22.8 72 3.8 - - - - - 1008.3 - 0.0
05/10:30pm 28.6 - 22.6 70 4.1 - - - - - 1008.2 - 0.0
05/10:00pm 29.3 - 23.0 69 4.3 - - - - - 1008.3 - 0.0
05/09:30pm 29.5 - 21.7 63 5.3 - - - - - 1008.1 - 0.0
05/09:00pm 30.0 - 22.2 63 5.3 - - - - - 1007.8 1007.2 0.0
05/08:30pm 30.5 - 21.6 59 6.0 - - - - - 1007.5 - 0.0
05/08:00pm 30.9 - 20.8 55 6.8 - - - - - 1007.1 - 0.0
05/07:30pm 31.8 - 20.7 51 7.4 - - - - - 1006.8 - 0.0
05/07:00pm 32.5 - 21.7 53 7.3 - - - - - 1006.5 - 0.0
05/06:30pm 34.5 - 20.1 43 9.6 - - - - - 1006.0 - 0.0
05/06:00pm 35.3 - 19.2 38 10.7 - - - - - 1005.7 1005.0 0.0
05/05:30pm 34.9 - 19.3 40 10.3 - - - - - 1005.7 - 0.0
05/05:00pm 34.3 - 21.0 45 9.0 - - - - - 1005.9 - 0.0
05/04:30pm 35.8 - 19.3 38 11.0 - - - - - 1005.8 - 0.0
05/04:00pm 35.4 - 20.5 41 10.0 - - - - - 1005.8 - 0.0
05/03:30pm 35.3 - 19.6 39 10.5 - - - - - 1006.4 - 0.0
05/03:00pm 36.3 - 18.4 35 11.8 - - - - - 1006.4 1005.8 0.0
05/02:30pm 36.2 - 17.4 33 12.2 - - - - - 1006.8 - 0.0
05/02:00pm 36.7 - 20.1 38 11.2 - - - - - 1007.3 - 0.0
05/01:30pm 36.1 - 19.1 36 11.3 - - - - - 1007.9 - 0.0
05/01:00pm 35.5 - 19.0 37 10.9 - - - - - 1008.5 - 0.0
05/12:30pm 34.8 - 20.0 42 9.9 - - - - - 1009.1 - 0.0
05/12:00pm 34.3 - 20.6 44 9.2 - - - - - 1009.4 1008.9 0.0
05/11:30am 33.6 - 20.4 46 8.8 - - - - - 1009.8 - 0.0
05/11:00am 33.2 - 20.4 47 8.6 - - - - - 1010.0 - 0.0
05/10:30am 32.6 - 21.1 50 7.8 - - - - - 1010.2 - 0.0
05/10:00am 31.6 - 21.7 55 6.7 - - - - - 1010.4 - 0.0
05/09:30am 31.0 - 21.5 57 6.4 - - - - - 1010.6 - 0.0
05/09:00am 30.3 - 21.7 60 5.8 - - - - - 1010.5 1009.9 0.0
05/08:30am 29.5 - 22.7 67 4.6 - - - - - 1010.4 - 0.0
05/08:00am 28.0 - 23.1 74 3.4 - - - - - 1010.3 - 0.0
05/07:30am 26.6 - 23.3 82 2.3 - - - - - 1009.8 - 0.0
05/07:00am 25.7 - 23.0 85 1.8 - - - - - 1009.3 - 0.0
05/06:30am 25.9 - 23.2 85 1.8 - - - - - 1008.7 - 0.0
05/06:00am 26.2 - 23.1 83 2.1 - - - - - 1008.6 1008.0 0.0
05/05:30am 26.5 - 23.0 81 2.4 - - - - - 1008.3 - 0.0
05/05:00am 26.6 - 22.7 79 2.6 - - - - - 1007.9 - 0.0
05/04:30am 26.8 - 22.8 79 2.7 - - - - - 1007.9 - 0.0
05/04:00am 27.3 - 22.7 76 3.1 - - - - - 1008.1 - 0.0
05/03:30am 28.0 - 23.1 74 3.4 - - - - - 1008.3 - 0.0
05/03:00am 28.2 - 22.0 69 4.2 - - - - - 1008.0 1007.4 0.0
05/02:30am 28.3 - 22.1 69 4.2 - - - - - 1007.8 - 0.0
05/02:00am 28.4 - 22.2 69 4.2 - - - - - 1008.1 - 0.0
05/01:30am 29.1 - 21.3 62 5.2 - - - - - 1008.4 - 0.0
05/01:00am 29.7 - 21.6 61 5.5 - - - - - 1009.0 - 0.0
05/12:30am 30.3 - 21.7 60 5.8 - - - - - 1009.4 - 0.0
05/12:00am 30.8 - 21.6 58 6.2 - - - - - 1009.7 1009.1 0.0
 
Date/Time
CST
Temp
°C
App
Temp
°C
Dew
Point
Rel
Hum
%
Delta-T
°C
Wind Press
QNH
hPa
Press
MSL
hPa
Rain
since 9 am
mm
Dir
 
Spd
km/h
Gust
km/h
Spd
kts
Gust
kts
04/11:30pm 30.6 - 22.7 62 5.4 - - - - - 1009.8 - 0.0
04/11:00pm 30.1 - 23.3 67 4.7 - - - - - 1009.5 - 0.0
04/10:30pm 30.3 - 22.2 62 5.5 - - - - - 1009.4 - 0.0
04/10:00pm 30.8 - 21.9 59 6.0 - - - - - 1009.3 - 0.0
04/09:30pm 31.0 - 21.8 58 6.2 - - - - - 1008.9 - 0.0
04/09:00pm 31.1 - 21.6 57 6.4 - - - - - 1008.2 1007.6 0.0
04/08:30pm 31.3 - 21.2 55 6.8 - - - - - 1007.6 - 0.0
04/08:00pm 31.8 - 21.3 53 7.1 - - - - - 1007.1 - 0.0
04/07:30pm 32.5 - 21.0 50 7.7 - - - - - 1006.8 - 0.0
04/07:00pm 34.2 - 20.2 43 9.4 - - - - - 1006.5 - 0.0
04/06:30pm 35.1 - 19.9 41 10.2 - - - - - 1006.3 - 0.0
04/06:00pm 35.6 - 19.5 38 10.7 - - - - - 1006.0 1005.4 0.0
04/05:30pm 35.8 - 19.3 38 11.0 - - - - - 1005.9 - 0.0
04/05:00pm 36.1 - 19.5 37 11.1 - - - - - 1005.9 - 0.0
04/04:30pm 36.5 - 21.9 42 10.0 - - - - - 1005.9 - 0.0
04/04:00pm 35.8 - 19.3 38 11.0 - - - - - 1006.3 - 0.0
04/03:30pm 35.6 - 21.8 44 9.5 - - - - - 1006.4 - 0.0
04/03:00pm 35.3 - 21.2 44 9.6 - - - - - 1006.6 1006.1 0.0
04/02:30pm 35.2 - 22.2 47 8.9 - - - - - 1007.0 - 0.0
04/02:00pm 34.5 - 21.5 46 8.9 - - - - - 1007.2 - 0.0
04/01:30pm 34.7 - 21.4 46 9.1 - - - - - 1007.7 - 0.0
04/01:00pm 34.0 - 23.1 53 7.6 - - - - - 1008.5 - 0.0
04/12:30pm 33.8 - 22.6 52 7.7 - - - - - 1008.9 - 0.0
04/12:00pm 33.2 - 22.0 51 7.7 - - - - - 1009.3 1008.7 0.0
04/11:30am 32.6 - 21.5 52 7.5 - - - - - 1009.2 - 0.0
04/11:00am 32.0 - 22.7 58 6.4 - - - - - 1009.3 - 0.0
04/10:30am 31.7 - 22.4 58 6.4 - - - - - 1009.5 - 0.0
04/10:00am 31.4 - 22.7 60 6.0 - - - - - 1009.6 - 0.0
04/09:30am 30.1 - 21.7 60 5.7 - - - - - 1009.7 - 0.0
04/09:00am 29.6 - 21.8 63 5.3 - - - - - 1009.5 1008.9 0.0
04/08:30am 29.0 - 23.0 70 4.1 - - - - - 1009.1 - 0.0
04/08:00am 27.8 - 22.5 73 3.6 - - - - - 1008.7 - 0.0
04/07:30am 27.3 - 22.3 74 3.4 - - - - - 1008.2 - 0.0
04/07:00am 27.2 - 22.2 74 3.4 - - - - - 1007.9 - 0.0
04/06:30am 27.3 - 22.3 74 3.4 - - - - - 1007.7 - 0.0
04/06:00am 27.3 - 22.5 75 3.3 - - - - - 1007.4 1006.7 0.0
04/05:30am 27.7 - 22.4 73 3.6 - - - - - 1007.2 - 0.0
04/05:00am 28.0 - 22.0 70 4.0 - - - - - 1007.0 - 0.0
04/04:30am 28.2 - 22.0 69 4.2 - - - - - 1006.7 - 0.0
04/04:00am 28.3 - 22.8 72 3.8 - - - - - 1006.6 - 0.0
04/03:30am 27.9 - 23.3 76 3.2 - - - - - 1006.7 - 0.0
04/03:00am 27.8 - 23.6 78 2.9 - - - - - 1006.8 1006.2 0.0
04/02:30am 27.6 - 23.2 77 3.0 - - - - - 1006.8 - 0.0
04/02:00am 28.0 - 23.6 77 3.0 - - - - - 1007.2 - 0.0
04/01:30am 28.5 - 23.6 75 3.4 - - - - - 1007.2 - 0.0
04/01:00am 28.4 - 23.8 76 3.2 - - - - - 1007.6 - 0.0
04/12:30am 28.5 - 24.3 78 2.9 - - - - - 1007.8 - 0.0
04/12:00am 28.5 - 23.2 73 3.6 - - - - - 1008.2 1007.6 0.0
 
Date/Time
CST
Temp
°C
App
Temp
°C
Dew
Point
Rel
Hum
%
Delta-T
°C
Wind Press
QNH
hPa
Press
MSL
hPa
Rain
since 9 am
mm
Dir
 
Spd
km/h
Gust
km/h
Spd
kts
Gust
kts
03/11:30pm 28.4 - 23.1 73 3.6 - - - - - 1008.0 - 0.0
03/11:00pm 28.7 - 23.6 74 3.5 - - - - - 1007.8 - 0.0
03/10:30pm 29.4 - 22.6 67 4.6 - - - - - 1007.7 - 0.0
03/10:00pm 29.9 - 22.9 66 4.8 - - - - - 1007.4 - 0.0
03/09:30pm 30.3 - 22.5 63 5.3 - - - - - 1007.0 - 0.0
03/09:00pm 30.6 - 22.2 61 5.7 - - - - - 1007.0 1006.4 0.0

Other Formats:

Comma delimited format used in spreadsheet applications
http://www.bom.gov.au/fwo/IDD60801/IDD60801.94232.axf

JavaScript Object Notation format (JSON) in row-major order
http://www.bom.gov.au/fwo/IDD60801/IDD60801.94232.json